Time;durP1;ratioP1;P1;durP2;ratioP2;P2;SDS_P1;SDS_P2;PMS_P1;PMS_P2;Temp;Humidity;BMP_temperature;BMP_pressure;BME280_temperature;BME280_humidity;BME280_pressure;Samples;Min_cycle;Max_cycle;Signal;HPM_P1;HPM_P2
2021/04/22 00:02:21;;;;;;;9.90;8.15;;;13.40;72.20;;;;;;5035309;28;20104;-71
2021/04/22 00:04:47;;;;;;;9.50;8.48;;;13.40;72.20;;;;;;5035455;28;20036;-69
2021/04/22 00:07:17;;;;;;;14.77;9.07;;;13.40;72.40;;;;;;5035402;28;20035;-68
2021/04/22 00:09:43;;;;;;;12.18;8.75;;;13.40;72.60;;;;;;5035306;28;20544;-69
2021/04/22 00:12:09;;;;;;;15.93;8.90;;;13.40;72.60;;;;;;5035420;28;20029;-69
2021/04/22 00:14:36;;;;;;;11.95;9.15;;;13.40;72.70;;;;;;5035225;28;20036;-69
2021/04/22 00:17:07;;;;;;;19.65;9.20;;;13.30;72.70;;;;;;5035024;28;20073;-68
2021/04/22 00:19:34;;;;;;;14.70;8.48;;;13.30;72.60;;;;;;5035239;28;20036;-69
2021/04/22 00:21:59;;;;;;;17.25;9.20;;;13.30;72.60;;;;;;5034939;28;20043;-68
2021/04/22 00:24:25;;;;;;;14.45;8.52;;;13.30;72.70;;;;;;5034524;28;20025;-69
2021/04/22 00:26:51;;;;;;;18.13;9.32;;;13.30;72.90;;;;;;5034908;28;20087;-68
2021/04/22 00:29:16;;;;;;;12.88;9.10;;;13.20;72.90;;;;;;5034919;28;20113;-68
2021/04/22 00:31:42;;;;;;;13.77;9.23;;;13.20;72.80;;;;;;5034833;28;20033;-68
2021/04/22 00:34:08;;;;;;;9.88;7.38;;;13.20;73.10;;;;;;5034800;28;20025;-68
2021/04/22 00:36:33;;;;;;;7.38;6.53;;;13.20;73.20;;;;;;5033473;28;20037;-69
2021/04/22 00:38:59;;;;;;;9.13;6.13;;;13.20;72.50;;;;;;5034707;28;20026;-68
2021/04/22 00:41:25;;;;;;;8.05;6.25;;;13.10;72.00;;;;;;5034906;28;20035;-68
2021/04/22 00:43:53;;;;;;;7.15;6.30;;;13.10;72.10;;;;;;5034681;28;20025;-68
2021/04/22 00:46:20;;;;;;;7.43;6.20;;;13.10;72.40;;;;;;5034408;28;20036;-69
2021/04/22 00:48:46;;;;;;;10.70;7.20;;;13.10;72.90;;;;;;5034616;28;20029;-68
2021/04/22 00:51:12;;;;;;;11.20;7.43;;;13.10;72.70;;;;;;5034216;28;20119;-68
2021/04/22 00:53:38;;;;;;;9.48;7.57;;;13.10;72.50;;;;;;5034472;28;20079;-69
2021/04/22 00:56:04;;;;;;;11.63;8.05;;;13.10;72.80;;;;;;5034575;28;20469;-68
2021/04/22 00:58:30;;;;;;;11.32;8.63;;;13.10;72.70;;;;;;5032752;28;20037;-69
2021/04/22 01:01:02;;;;;;;8.63;7.68;;;13.10;72.70;;;;;;5031358;28;20113;-69
2021/04/22 01:03:28;;;;;;;13.20;8.80;;;13.10;72.90;;;;;;5031209;28;20068;-68
2021/04/22 01:06:02;;;;;;;11.15;8.80;;;13.10;72.80;;;;;;5033635;28;20060;-68
2021/04/22 01:08:27;;;;;;;13.07;9.00;;;13.00;73.00;;;;;;5034364;28;20033;-68
2021/04/22 01:10:53;;;;;;;10.43;8.25;;;13.00;73.10;;;;;;5034187;28;20044;-69
2021/04/22 01:13:20;;;;;;;11.77;9.00;;;13.00;72.90;;;;;;5033788;28;20443;-70
2021/04/22 01:15:46;;;;;;;15.18;9.13;;;13.00;73.10;;;;;;5034141;28;20056;-71
2021/04/22 01:18:12;;;;;;;11.77;8.60;;;12.90;73.20;;;;;;5034053;28;20060;-72
2021/04/22 01:20:44;;;;;;;10.20;8.60;;;12.90;73.30;;;;;;5033557;28;20049;-70
2021/04/22 01:23:10;;;;;;;10.00;8.32;;;12.90;73.70;;;;;;5033951;28;20036;-71
2021/04/22 01:25:42;;;;;;;12.38;9.57;;;12.90;73.70;;;;;;5033853;28;20018;-71
2021/04/22 01:28:10;;;;;;;12.38;8.35;;;12.90;73.80;;;;;;5033106;28;20079;-71
2021/04/22 01:30:46;;;;;;;10.00;8.35;;;12.90;73.50;;;;;;5033549;28;20025;-71
2021/04/22 01:33:14;;;;;;;11.40;7.78;;;12.80;73.90;;;;;;5033785;28;20018;-71
2021/04/22 01:35:42;;;;;;;10.02;7.28;;;12.80;73.90;;;;;;5033418;28;20386;-71
2021/04/22 01:38:09;;;;;;;9.23;6.45;;;12.80;73.90;;;;;;5033713;28;20393;-71
2021/04/22 01:40:36;;;;;;;9.30;7.90;;;12.80;73.80;;;;;;5033415;28;20033;-71
2021/04/22 01:43:02;;;;;;;10.45;7.57;;;12.80;74.10;;;;;;5033084;28;20159;-69
2021/04/22 01:45:28;;;;;;;10.07;7.20;;;12.80;73.80;;;;;;5033367;28;20100;-71
2021/04/22 01:47:54;;;;;;;8.85;6.47;;;12.80;73.90;;;;;;5032801;28;20076;-71
2021/04/22 01:50:27;;;;;;;7.47;5.97;;;12.80;73.90;;;;;;5032793;28;20053;-72
2021/04/22 01:52:54;;;;;;;7.38;6.03;;;12.70;73.40;;;;;;5033452;28;20028;-71
2021/04/22 01:55:44;;;;;;;7.75;5.78;;;12.70;73.60;;;;;;5032960;28;20025;-71
2021/04/22 01:58:13;;;;;;;9.50;5.53;;;12.70;73.70;;;;;;5032948;28;20120;-72
2021/04/22 02:00:45;;;;;;;11.82;6.65;;;12.70;73.80;;;;;;5033095;28;20025;-71
2021/04/22 02:03:12;;;;;;;9.45;7.20;;;12.70;74.30;;;;;;5033615;28;20033;-71
2021/04/22 02:05:39;;;;;;;10.40;6.63;;;12.70;74.40;;;;;;5033279;28;20108;-71
2021/04/22 02:08:06;;;;;;;14.65;7.80;;;12.70;74.30;;;;;;5033346;28;20436;-71
2021/04/22 02:10:32;;;;;;;18.73;7.88;;;12.60;74.80;;;;;;5033319;28;20026;-71
2021/04/22 02:12:59;;;;;;;13.95;7.30;;;12.60;74.80;;;;;;5033055;28;20108;-72
2021/04/22 02:15:27;;;;;;;16.75;7.43;;;12.60;74.70;;;;;;5033134;28;20166;-71
2021/04/22 02:17:53;;;;;;;11.65;7.60;;;12.60;74.80;;;;;;5032919;28;20045;-72
2021/04/22 02:20:19;;;;;;;10.00;7.30;;;12.50;74.60;;;;;;5033329;28;20026;-71
2021/04/22 02:22:46;;;;;;;9.75;7.85;;;12.60;74.60;;;;;;5033388;28;20025;-72
2021/04/22 02:25:15;;;;;;;8.90;7.60;;;12.50;74.60;;;;;;5033295;28;20021;-72
2021/04/22 02:27:41;;;;;;;13.98;7.40;;;12.50;75.10;;;;;;5032953;28;20021;-72
2021/04/22 02:30:16;;;;;;;11.30;7.43;;;12.50;74.70;;;;;;5032803;28;20033;-71
2021/04/22 02:32:42;;;;;;;10.63;7.57;;;12.40;74.40;;;;;;5033044;28;20033;-69
2021/04/22 02:35:10;;;;;;;9.43;7.60;;;12.40;74.60;;;;;;5032968;28;20470;-71
2021/04/22 02:37:37;;;;;;;14.23;7.45;;;12.40;74.70;;;;;;5032928;28;20025;-70
2021/04/22 02:40:09;;;;;;;13.02;7.45;;;12.40;74.60;;;;;;5032963;28;20026;-70
2021/04/22 02:42:35;;;;;;;15.93;7.72;;;12.40;74.60;;;;;;5032854;28;20406;-72
2021/04/22 02:45:00;;;;;;;12.55;7.57;;;12.30;74.40;;;;;;5032913;28;20409;-71
2021/04/22 02:47:26;;;;;;;9.50;7.57;;;12.30;74.70;;;;;;5032999;28;20041;-68
2021/04/22 02:49:52;;;;;;;9.95;7.50;;;12.20;74.70;;;;;;5032787;28;20057;-69
2021/04/22 02:52:18;;;;;;;9.52;7.57;;;12.20;74.90;;;;;;5032752;28;20060;-72
2021/04/22 02:54:43;;;;;;;10.75;7.95;;;12.20;75.20;;;;;;5032677;28;20025;-71
2021/04/22 02:57:10;;;;;;;11.68;7.47;;;12.10;75.00;;;;;;5032882;28;20375;-69
2021/04/22 02:59:36;;;;;;;8.00;7.20;;;12.10;75.10;;;;;;5034417;28;20018;-69
2021/04/22 03:02:01;;;;;;;8.63;7.30;;;12.10;75.20;;;;;;5036819;28;20049;-71
2021/04/22 03:04:27;;;;;;;10.95;8.32;;;12.10;74.70;;;;;;5036580;28;20025;-69
2021/04/22 03:06:53;;;;;;;9.50;7.15;;;12.10;74.50;;;;;;5036548;28;20025;-68
2021/04/22 03:09:18;;;;;;;8.68;7.85;;;12.10;74.60;;;;;;5036876;28;20029;-69
2021/04/22 03:11:44;;;;;;;9.52;7.10;;;12.00;74.50;;;;;;5036285;28;20104;-69
2021/04/22 03:14:10;;;;;;;10.63;7.85;;;11.90;74.60;;;;;;5036471;28;20032;-68
2021/04/22 03:16:36;;;;;;;7.57;6.82;;;11.90;74.80;;;;;;5036415;28;20559;-69
2021/04/22 03:19:02;;;;;;;11.82;8.25;;;11.90;74.70;;;;;;5036205;28;20017;-68
2021/04/22 03:21:27;;;;;;;8.32;7.53;;;11.80;74.80;;;;;;5036256;28;20071;-68
2021/04/22 03:23:53;;;;;;;9.13;7.93;;;11.80;75.00;;;;;;5036111;28;20060;-71
2021/04/22 03:26:19;;;;;;;13.85;7.65;;;11.70;75.00;;;;;;5036058;28;20025;-71
2021/04/22 03:28:44;;;;;;;10.60;8.13;;;11.70;75.80;;;;;;5036068;28;20152;-69
2021/04/22 03:31:10;;;;;;;8.90;8.00;;;11.70;75.10;;;;;;5035907;28;20376;-68
2021/04/22 03:33:36;;;;;;;9.13;7.88;;;11.70;75.10;;;;;;5036021;28;20025;-69
2021/04/22 03:36:02;;;;;;;10.60;7.85;;;11.70;75.00;;;;;;5035901;28;20115;-69
2021/04/22 03:38:27;;;;;;;12.10;7.68;;;11.70;75.00;;;;;;5035833;28;20616;-68
2021/04/22 03:40:53;;;;;;;10.40;8.00;;;11.60;75.40;;;;;;5035689;28;20053;-69
2021/04/22 03:43:19;;;;;;;13.43;8.25;;;11.60;75.50;;;;;;5035839;28;20056;-69
2021/04/22 03:45:44;;;;;;;10.55;8.13;;;11.50;75.50;;;;;;5035916;28;20022;-69
2021/04/22 03:48:10;;;;;;;14.07;8.10;;;11.50;75.40;;;;;;5035614;28;20409;-68
2021/04/22 03:50:36;;;;;;;13.70;7.65;;;11.50;75.50;;;;;;5035450;28;20049;-68
2021/04/22 03:53:02;;;;;;;9.82;7.68;;;11.40;75.30;;;;;;5035536;28;20026;-68
2021/04/22 03:55:27;;;;;;;11.30;7.55;;;11.40;75.30;;;;;;5035714;28;20474;-69
2021/04/22 03:57:53;;;;;;;12.07;7.82;;;11.40;75.00;;;;;;5035437;28;20393;-69
2021/04/22 04:00:21;;;;;;;9.85;7.90;;;11.40;75.30;;;;;;5035447;28;20030;-69
2021/04/22 04:02:48;;;;;;;11.52;7.82;;;11.40;75.30;;;;;;5034223;28;20431;-68
2021/04/22 04:05:14;;;;;;;10.48;7.63;;;11.40;75.50;;;;;;5035825;28;20071;-68
2021/04/22 04:07:40;;;;;;;11.27;7.50;;;11.40;76.00;;;;;;5035351;28;20029;-69
2021/04/22 04:10:07;;;;;;;12.50;8.20;;;11.40;76.10;;;;;;5035170;28;20029;-69
2021/04/22 04:12:33;;;;;;;10.95;8.23;;;11.30;76.10;;;;;;5035091;28;20025;-66
2021/04/22 04:14:59;;;;;;;14.65;7.80;;;11.30;76.00;;;;;;5035214;28;20032;-68
2021/04/22 04:17:25;;;;;;;12.02;7.55;;;11.30;76.00;;;;;;5035178;28;20045;-69
2021/04/22 04:19:51;;;;;;;11.63;8.05;;;11.30;76.50;;;;;;5035205;28;20025;-68
2021/04/22 04:22:17;;;;;;;10.50;8.02;;;11.30;76.10;;;;;;5034973;28;20025;-69
2021/04/22 04:24:43;;;;;;;12.52;7.57;;;11.20;76.40;;;;;;5035099;28;20035;-69
2021/04/22 04:27:08;;;;;;;9.32;7.28;;;11.20;76.30;;;;;;5035094;28;20028;-69
2021/04/22 04:29:34;;;;;;;10.32;7.90;;;11.20;76.30;;;;;;5035439;28;20033;-70
2021/04/22 04:32:00;;;;;;;10.23;7.82;;;11.20;76.20;;;;;;5035081;28;20060;-70
2021/04/22 04:34:25;;;;;;;9.32;7.65;;;11.20;76.20;;;;;;5034947;28;20437;-70
2021/04/22 04:36:51;;;;;;;10.02;8.05;;;11.20;76.00;;;;;;5035022;28;20036;-70
2021/04/22 04:39:17;;;;;;;10.35;7.95;;;11.10;75.80;;;;;;5034819;28;20048;-71
2021/04/22 04:41:43;;;;;;;10.65;7.95;;;11.10;76.50;;;;;;5033311;28;20034;-70
2021/04/22 04:44:10;;;;;;;9.85;8.32;;;11.10;76.60;;;;;;5034864;28;20018;-70
2021/04/22 04:46:36;;;;;;;10.88;8.25;;;11.10;76.50;;;;;;5034770;28;20021;-69
2021/04/22 04:49:05;;;;;;;12.05;8.18;;;11.10;77.00;;;;;;5034631;28;20022;-70
2021/04/22 04:51:30;;;;;;;21.23;8.30;;;11.10;77.00;;;;;;5034447;28;20045;-71
2021/04/22 04:53:56;;;;;;;17.15;8.50;;;11.10;76.90;;;;;;5034512;28;20026;-71
2021/04/22 04:56:22;;;;;;;19.23;8.32;;;11.10;77.10;;;;;;5034439;28;20065;-71
2021/04/22 04:58:48;;;;;;;15.50;7.80;;;11.10;77.20;;;;;;5034508;28;20493;-70
2021/04/22 05:01:14;;;;;;;12.43;8.32;;;11.10;77.00;;;;;;5034417;28;20488;-70
2021/04/22 05:03:41;;;;;;;12.98;8.15;;;11.10;76.80;;;;;;5034462;28;20367;-70
2021/04/22 05:06:06;;;;;;;13.60;8.02;;;11.10;77.00;;;;;;5034213;28;20382;-70
2021/04/22 05:08:33;;;;;;;13.75;8.25;;;11.10;77.30;;;;;;5034366;28;20021;-71
2021/04/22 05:10:59;;;;;;;14.15;8.80;;;11.10;76.70;;;;;;5033827;28;20029;-71
2021/04/22 05:13:26;;;;;;;13.50;8.57;;;11.10;76.70;;;;;;5034251;28;20021;-71
2021/04/22 05:15:51;;;;;;;9.45;7.90;;;11.20;77.50;;;;;;5034058;28;20496;-70
2021/04/22 05:18:17;;;;;;;13.02;8.35;;;11.20;77.50;;;;;;5034241;28;20108;-70
2021/04/22 05:20:43;;;;;;;11.07;8.07;;;11.20;77.10;;;;;;5033852;28;20021;-70
2021/04/22 05:23:08;;;;;;;14.02;8.43;;;11.20;77.00;;;;;;5033620;28;20021;-69
2021/04/22 05:25:34;;;;;;;10.43;8.63;;;11.20;77.60;;;;;;5033680;28;20546;-69
2021/04/22 05:28:00;;;;;;;14.35;8.90;;;11.20;77.00;;;;;;5034024;28;20072;-71
2021/04/22 05:30:26;;;;;;;13.23;9.13;;;11.20;76.80;;;;;;5033925;28;20543;-68
2021/04/22 05:32:53;;;;;;;10.98;8.32;;;11.30;77.40;;;;;;5033718;28;20017;-68
2021/04/22 05:35:18;;;;;;;10.73;8.77;;;11.30;77.40;;;;;;5033523;28;20044;-68
2021/04/22 05:37:44;;;;;;;13.15;9.25;;;11.30;77.30;;;;;;5033635;28;20041;-69
2021/04/22 05:40:10;;;;;;;10.68;7.88;;;11.30;77.70;;;;;;5033426;28;20025;-68
2021/04/22 05:42:36;;;;;;;11.98;8.00;;;11.40;77.90;;;;;;5033696;28;20018;-68
2021/04/22 05:45:03;;;;;;;10.32;8.00;;;11.40;77.30;;;;;;5033719;28;20032;-68
2021/04/22 05:47:29;;;;;;;9.32;7.63;;;11.50;77.30;;;;;;5033511;28;20022;-68
2021/04/22 05:49:54;;;;;;;10.20;6.93;;;11.50;76.80;;;;;;5033239;28;20022;-68
2021/04/22 05:52:20;;;;;;;10.18;8.05;;;11.50;77.10;;;;;;5033350;28;20064;-68
2021/04/22 05:54:46;;;;;;;11.85;7.40;;;11.50;77.10;;;;;;5033321;28;20147;-68
2021/04/22 05:57:12;;;;;;;8.43;7.32;;;11.60;77.00;;;;;;5033562;28;20033;-68
2021/04/22 05:59:37;;;;;;;11.65;7.40;;;11.60;76.70;;;;;;5033382;28;20164;-68
2021/04/22 06:02:03;;;;;;;19.33;7.95;;;11.60;76.70;;;;;;5031930;28;20560;-69
2021/04/22 06:04:29;;;;;;;10.48;7.82;;;11.70;76.80;;;;;;5032092;28;20022;-68
2021/04/22 06:06:54;;;;;;;9.82;7.50;;;11.70;76.60;;;;;;5031276;28;20026;-68
2021/04/22 06:09:20;;;;;;;15.68;6.90;;;11.70;76.60;;;;;;5031546;28;20022;-68
2021/04/22 06:11:46;;;;;;;12.10;7.88;;;11.90;76.30;;;;;;5032522;28;20087;-68
2021/04/22 06:14:12;;;;;;;10.38;7.20;;;11.90;75.90;;;;;;5031774;28;20030;-68
2021/04/22 06:16:37;;;;;;;12.27;7.07;;;12.00;75.60;;;;;;5031020;28;20034;-68
2021/04/22 06:19:05;;;;;;;10.65;7.40;;;12.10;75.80;;;;;;5032803;28;20500;-68
2021/04/22 06:21:31;;;;;;;12.00;7.18;;;12.10;75.30;;;;;;5033020;28;20026;-68
2021/04/22 06:23:56;;;;;;;14.73;6.93;;;12.20;74.90;;;;;;5032894;28;20022;-68
2021/04/22 06:26:22;;;;;;;8.65;6.72;;;12.30;74.80;;;;;;5033225;28;20025;-68
2021/04/22 06:28:51;;;;;;;9.93;6.18;;;12.30;74.50;;;;;;5033024;28;20034;-68
2021/04/22 06:31:18;;;;;;;7.47;6.70;;;12.30;74.10;;;;;;5033023;28;20021;-68
2021/04/22 06:33:43;;;;;;;8.80;6.20;;;12.40;74.00;;;;;;5033190;28;20095;-68
2021/04/22 06:36:09;;;;;;;11.73;5.88;;;12.50;73.30;;;;;;5035816;28;20465;-68
2021/04/22 06:38:35;;;;;;;9.80;6.70;;;12.60;73.20;;;;;;5034032;28;20029;-68
2021/04/22 06:41:01;;;;;;;10.80;6.63;;;12.60;73.30;;;;;;5034942;28;20032;-69
2021/04/22 06:43:27;;;;;;;10.38;6.45;;;12.70;73.00;;;;;;5035348;28;20386;-70
2021/04/22 06:45:53;;;;;;;7.07;6.03;;;12.70;72.40;;;;;;5036283;28;20504;-68
2021/04/22 06:48:18;;;;;;;8.90;6.20;;;12.70;72.30;;;;;;5036269;28;20142;-71
2021/04/22 06:50:44;;;;;;;12.63;7.25;;;12.80;72.10;;;;;;5036226;28;20056;-69
2021/04/22 06:53:10;;;;;;;22.75;7.35;;;12.80;72.20;;;;;;5034990;28;20393;-72
2021/04/22 06:55:36;;;;;;;12.88;6.93;;;12.90;72.20;;;;;;5036119;28;20025;-70
2021/04/22 06:58:04;;;;;;;16.13;7.32;;;12.80;72.40;;;;;;5036389;28;20568;-67
2021/04/22 07:00:34;;;;;;;16.15;7.82;;;12.80;72.40;;;;;;5036508;28;20035;-68
2021/04/22 07:03:00;;;;;;;16.25;7.07;;;12.80;72.70;;;;;;5036180;28;20134;-68
2021/04/22 07:05:26;;;;;;;15.48;6.53;;;12.90;73.00;;;;;;5035614;28;20481;-69
2021/04/22 07:07:51;;;;;;;19.92;7.80;;;12.90;73.20;;;;;;5035352;28;20116;-68
2021/04/22 07:10:17;;;;;;;12.02;6.45;;;12.90;72.90;;;;;;5034505;28;20032;-67
2021/04/22 07:12:44;;;;;;;11.85;6.90;;;13.00;72.80;;;;;;5034900;28;20025;-69
2021/04/22 07:15:10;;;;;;;12.63;6.72;;;13.00;72.80;;;;;;5035218;28;20419;-71
2021/04/22 07:17:37;;;;;;;11.95;6.47;;;13.00;73.20;;;;;;5033950;28;20045;-66
2021/04/22 07:20:08;;;;;;;14.75;7.82;;;13.10;73.50;;;;;;5035415;28;20087;-71
2021/04/22 07:22:34;;;;;;;16.23;7.38;;;13.10;73.30;;;;;;5019157;28;20037;-71
2021/04/22 07:25:00;;;;;;;15.82;6.53;;;13.10;73.10;;;;;;5033078;28;20025;-70
2021/04/22 07:27:27;;;;;;;11.55;6.55;;;13.10;72.80;;;;;;5035799;28;20029;-72
2021/04/22 07:29:52;;;;;;;13.73;7.00;;;13.10;72.70;;;;;;5035500;28;20447;-72
2021/04/22 07:32:20;;;;;;;13.18;6.45;;;13.20;72.60;;;;;;5035731;28;20108;-72
2021/04/22 07:34:47;;;;;;;9.25;6.60;;;13.30;72.80;;;;;;5035597;28;20497;-67
2021/04/22 07:37:17;;;;;;;16.67;6.55;;;13.40;72.90;;;;;;5035800;28;20049;-72
2021/04/22 07:39:44;;;;;;;12.30;6.10;;;13.50;71.70;;;;;;5035582;28;20414;-73
2021/04/22 07:42:10;;;;;;;10.20;6.00;;;13.50;71.80;;;;;;5035283;28;20037;-73
2021/04/22 07:44:37;;;;;;;12.18;6.25;;;13.50;71.60;;;;;;5034835;28;20498;-71
2021/04/22 07:47:03;;;;;;;12.05;6.70;;;13.60;71.80;;;;;;5035290;28;20033;-67
2021/04/22 07:49:29;;;;;;;10.27;6.00;;;13.60;71.60;;;;;;5035628;28;20025;-67
2021/04/22 07:51:55;;;;;;;11.80;5.15;;;13.70;71.70;;;;;;5035044;28;20045;-66
2021/04/22 07:54:22;;;;;;;8.60;4.03;;;13.80;71.50;;;;;;5035371;28;20030;-66
2021/04/22 07:56:48;;;;;;;6.22;2.88;;;13.90;71.80;;;;;;5035327;28;20394;-64
2021/04/22 07:59:13;;;;;;;4.25;2.10;;;14.00;71.20;;;;;;5035173;28;20037;-65
2021/04/22 08:01:39;;;;;;;5.78;2.85;;;14.10;70.00;;;;;;5035189;28;20470;-70
2021/04/22 08:04:05;;;;;;;4.88;2.42;;;14.20;68.40;;;;;;5035440;28;20029;-65
2021/04/22 08:06:32;;;;;;;5.25;2.58;;;14.30;68.40;;;;;;5035262;28;20382;-64
2021/04/22 08:08:59;;;;;;;11.00;5.22;;;14.30;68.90;;;;;;5034704;28;20067;-65
2021/04/22 08:11:25;;;;;;;11.00;4.35;;;14.30;69.60;;;;;;5034802;28;20026;-64
2021/04/22 08:13:51;;;;;;;7.63;4.63;;;14.30;69.40;;;;;;5034856;28;20040;-64
2021/04/22 08:16:16;;;;;;;10.88;4.53;;;14.40;70.60;;;;;;5034918;28;20029;-65
2021/04/22 08:18:42;;;;;;;6.95;4.72;;;14.40;70.60;;;;;;5034794;28;20049;-65
2021/04/22 08:21:08;;;;;;;8.85;4.65;;;14.50;71.00;;;;;;5034603;28;20029;-65
2021/04/22 08:23:34;;;;;;;5.82;3.30;;;14.50;70.10;;;;;;5034852;28;20026;-64
2021/04/22 08:26:06;;;;;;;15.20;5.15;;;14.60;69.30;;;;;;5034792;28;20030;-64
2021/04/22 08:28:32;;;;;;;9.50;4.32;;;14.70;70.10;;;;;;5034569;28;20470;-66
2021/04/22 08:31:08;;;;;;;7.85;3.85;;;14.70;69.70;;;;;;5034628;28;20120;-66
2021/04/22 08:33:36;;;;;;;6.85;3.92;;;14.70;69.10;;;;;;5034604;28;20033;-66
2021/04/22 08:36:05;;;;;;;9.90;3.22;;;14.80;68.80;;;;;;5034586;28;20034;-72
2021/04/22 08:38:31;;;;;;;5.20;3.60;;;14.80;68.40;;;;;;5033479;28;20555;-69
2021/04/22 08:40:58;;;;;;;4.97;3.60;;;14.80;69.00;;;;;;5033282;28;20112;-72
2021/04/22 08:43:24;;;;;;;4.60;2.92;;;14.90;67.60;;;;;;5033061;28;20037;-66
2021/04/22 08:45:51;;;;;;;5.15;3.00;;;14.90;68.50;;;;;;5034183;28;20470;-73
2021/04/22 08:48:19;;;;;;;7.45;4.18;;;14.90;67.70;;;;;;5034037;28;20072;-67
2021/04/22 08:50:47;;;;;;;7.18;3.40;;;14.90;67.60;;;;;;5033613;28;20046;-68
2021/04/22 08:53:23;;;;;;;7.93;3.13;;;14.90;68.30;;;;;;5034110;28;20482;-72
2021/04/22 08:55:50;;;;;;;4.20;3.00;;;14.90;67.90;;;;;;5033918;28;20030;-67
2021/04/22 08:58:16;;;;;;;4.57;3.50;;;14.90;67.40;;;;;;5033536;28;20102;-68
2021/04/22 09:00:51;;;;;;;7.20;3.13;;;14.90;67.30;;;;;;5032688;28;20026;-70
2021/04/22 09:03:18;;;;;;;4.68;3.40;;;14.90;67.30;;;;;;5033451;28;20057;-67
2021/04/22 09:05:44;;;;;;;7.90;3.83;;;14.80;67.00;;;;;;5033240;28;20466;-68
2021/04/22 09:08:10;;;;;;;6.13;3.83;;;14.80;67.30;;;;;;5031539;28;20075;-71
2021/04/22 09:10:36;;;;;;;5.18;3.20;;;14.80;67.50;;;;;;5033625;28;20040;-72
2021/04/22 09:13:15;;;;;;;5.38;3.28;;;14.80;67.20;;;;;;5033600;28;20025;-68
2021/04/22 09:15:44;;;;;;;6.25;3.28;;;14.80;67.00;;;;;;5033930;28;20021;-67
2021/04/22 09:18:19;;;;;;;5.18;2.97;;;14.70;67.50;;;;;;5033591;28;20534;-68
2021/04/22 09:20:51;;;;;;;5.93;2.95;;;14.70;66.00;;;;;;5033475;28;20116;-68
2021/04/22 09:23:20;;;;;;;4.22;2.50;;;14.70;67.20;;;;;;5033266;28;20034;-68
2021/04/22 09:25:52;;;;;;;6.85;2.35;;;14.80;67.00;;;;;;5033385;28;20029;-68
2021/04/22 09:28:18;;;;;;;2.97;2.05;;;14.80;66.80;;;;;;5033408;28;20484;-68
2021/04/22 09:30:46;;;;;;;4.47;1.83;;;14.90;66.10;;;;;;5033600;28;20116;-68
2021/04/22 09:33:29;;;;;;;3.85;2.60;;;15.00;67.40;;;;;;5033525;28;20013;-72
2021/04/22 09:36:06;;;;;;;7.50;2.50;;;15.20;65.70;;;;;;5033140;28;20022;-69
2021/04/22 09:38:32;;;;;;;5.88;2.50;;;15.20;64.20;;;;;;5031580;28;20030;-67
2021/04/22 09:41:08;;;;;;;5.03;2.58;;;15.30;62.50;;;;;;5032031;28;20029;-67
2021/04/22 09:43:33;;;;;;;3.90;2.60;;;15.20;63.80;;;;;;5033340;28;20037;-68
2021/04/22 09:45:59;;;;;;;4.78;2.47;;;15.30;64.30;;;;;;5033287;28;20425;-67
2021/04/22 09:48:28;;;;;;;5.05;2.30;;;15.30;64.30;;;;;;5033531;28;20067;-67
2021/04/22 09:50:55;;;;;;;3.53;1.85;;;15.30;64.00;;;;;;5032670;28;20557;-68
2021/04/22 09:53:24;;;;;;;4.93;2.03;;;15.40;62.40;;;;;;5033168;28;20068;-67
2021/04/22 09:56:11;;;;;;;5.22;1.85;;;15.40;60.70;;;;;;5033394;28;20113;-67
2021/04/22 09:58:38;;;;;;;3.20;1.77;;;15.50;60.90;;;;;;5032926;28;20037;-67
2021/04/22 10:01:07;;;;;;;7.63;1.80;;;15.50;60.90;;;;;;5033145;28;20038;-72
2021/04/22 10:03:33;;;;;;;3.35;1.88;;;15.60;60.50;;;;;;5033309;28;20355;-73
2021/04/22 10:06:04;;;;;;;6.22;1.52;;;15.70;61.20;;;;;;5033123;28;20080;-73
2021/04/22 10:08:30;;;;;;;4.63;1.90;;;15.80;60.30;;;;;;5033012;28;20386;-73
2021/04/22 10:11:00;;;;;;;3.72;1.67;;;15.90;60.20;;;;;;5032946;28;20029;-73
2021/04/22 10:13:26;;;;;;;7.38;2.30;;;16.00;60.50;;;;;;5033156;28;20017;-73
2021/04/22 10:15:57;;;;;;;4.75;1.85;;;16.20;62.00;;;;;;5032932;28;20032;-73
2021/04/22 10:18:43;;;;;;;4.97;2.35;;;16.30;61.60;;;;;;5033115;28;20061;-73
2021/04/22 10:21:09;;;;;;;2.45;1.75;;;16.50;61.70;;;;;;5033095;28;20033;-72
2021/04/22 10:23:35;;;;;;;5.68;2.47;;;16.70;61.50;;;;;;5033017;28;20086;-72
2021/04/22 10:26:02;;;;;;;4.80;2.13;;;16.80;59.50;;;;;;5032872;28;20466;-71
2021/04/22 10:28:28;;;;;;;5.50;2.40;;;16.80;60.70;;;;;;5032554;28;20029;-72
2021/04/22 10:30:56;;;;;;;2.78;2.03;;;16.80;60.30;;;;;;5032692;28;20474;-72
2021/04/22 10:33:26;;;;;;;8.60;2.50;;;16.70;59.50;;;;;;5032706;28;20030;-72
2021/04/22 10:35:52;;;;;;;5.10;2.08;;;16.60;58.20;;;;;;5032602;28;20390;-72
2021/04/22 10:38:19;;;;;;;4.32;1.90;;;16.50;58.90;;;;;;5032160;28;20037;-73
2021/04/22 10:40:49;;;;;;;5.90;2.10;;;16.40;59.00;;;;;;5031668;28;20147;-72
2021/04/22 10:43:23;;;;;;;4.20;1.92;;;16.30;60.20;;;;;;5032578;28;20076;-72
2021/04/22 10:45:50;;;;;;;6.93;2.35;;;16.20;61.40;;;;;;5032426;28;20021;-73
2021/04/22 10:48:16;;;;;;;4.90;1.90;;;16.10;60.80;;;;;;5032461;28;20390;-72
2021/04/22 10:50:45;;;;;;;5.35;2.42;;;16.00;60.90;;;;;;5032358;28;20045;-71
2021/04/22 10:53:15;;;;;;;4.93;2.35;;;16.00;61.60;;;;;;5032524;28;20025;-73
2021/04/22 10:55:44;;;;;;;5.05;2.35;;;16.00;62.10;;;;;;5032033;28;20327;-72
2021/04/22 10:58:20;;;;;;;5.75;2.70;;;16.00;62.80;;;;;;5032290;28;20449;-72
2021/04/22 11:00:51;;;;;;;3.58;2.50;;;16.00;62.70;;;;;;5031583;28;20398;-72
2021/04/22 11:03:27;;;;;;;7.00;2.30;;;16.00;63.40;;;;;;5032701;28;20025;-73
2021/04/22 11:06:05;;;;;;;4.35;2.75;;;16.00;62.40;;;;;;5032853;28;20030;-72
2021/04/22 11:08:31;;;;;;;5.00;2.67;;;16.00;61.50;;;;;;5032581;28;20030;-72
2021/04/22 11:10:57;;;;;;;4.78;2.75;;;16.00;61.70;;;;;;5032531;28;20025;-73
2021/04/22 11:13:30;;;;;;;9.38;2.40;;;15.90;62.40;;;;;;5032378;28;20117;-73
2021/04/22 11:15:55;;;;;;;;;;;16.00;63.10;;;;;;5032967;28;20386;-70
2021/04/22 11:18:32;;;;;;;8.90;2.90;;;16.00;64.30;;;;;;5031614;28;19913;-72
2021/04/22 11:20:58;;;;;;;7.10;2.60;;;16.10;63.60;;;;;;5033506;28;20112;-72
2021/04/22 11:23:24;;;;;;;3.22;2.42;;;16.20;62.40;;;;;;5034893;28;20101;-72
2021/04/22 11:25:55;;;;;;;4.60;2.58;;;16.20;62.00;;;;;;5035464;28;20434;-72
2021/04/22 11:28:32;;;;;;;4.18;2.22;;;16.20;61.50;;;;;;5034775;28;20099;-71
2021/04/22 11:31:08;;;;;;;6.00;2.67;;;16.20;61.00;;;;;;5035579;28;20055;-72
2021/04/22 11:33:35;;;;;;;6.68;2.80;;;16.30;62.00;;;;;;5035836;28;20021;-72
2021/04/22 11:36:21;;;;;;;5.53;2.50;;;16.40;60.60;;;;;;5035463;28;20037;-70
2021/04/22 11:38:55;;;;;;;6.22;2.50;;;16.50;62.50;;;;;;5035775;28;20068;-74
2021/04/22 11:41:23;;;;;;;4.55;2.40;;;16.60;60.80;;;;;;5035637;28;20049;-72
2021/04/22 11:44:09;;;;;;;3.50;2.70;;;16.60;60.80;;;;;;5035946;28;20458;-73
2021/04/22 11:46:38;;;;;;;10.32;3.17;;;16.60;62.30;;;;;;5035631;28;20026;-73
2021/04/22 11:49:05;;;;;;;7.55;3.10;;;16.70;61.30;;;;;;5035559;28;20033;-72
2021/04/22 11:51:35;;;;;;;5.30;2.70;;;16.80;61.60;;;;;;5035190;28;20576;-74
2021/04/22 11:54:01;;;;;;;5.22;2.60;;;17.00;61.90;;;;;;5035597;28;20513;-73
2021/04/22 11:56:27;;;;;;;7.75;2.70;;;17.10;59.60;;;;;;5035393;28;20022;-73
2021/04/22 11:58:53;;;;;;;7.07;2.63;;;17.20;60.00;;;;;;5050788;28;20542;-72
2021/04/22 12:01:19;;;;;;;3.70;2.03;;;17.30;60.90;;;;;;5035318;28;20032;-73
2021/04/22 12:03:46;;;;;;;7.45;2.80;;;17.40;60.70;;;;;;5035261;28;20478;-73
2021/04/22 12:06:15;;;;;;;8.90;2.42;;;17.60;61.40;;;;;;5035400;28;20026;-72
2021/04/22 12:08:46;;;;;;;7.30;2.90;;;17.80;58.30;;;;;;5035490;28;20036;-72
2021/04/22 12:11:22;;;;;;;8.38;2.38;;;18.00;57.20;;;;;;5034378;28;20478;-71
2021/04/22 12:13:49;;;;;;;7.53;2.40;;;18.00;57.20;;;;;;5033162;28;20047;-72
2021/04/22 12:16:15;;;;;;;3.58;2.45;;;18.10;57.50;;;;;;5032505;28;20067;-71
2021/04/22 12:18:44;;;;;;;3.90;2.20;;;18.10;54.90;;;;;;5032064;28;20569;-72
2021/04/22 12:21:11;;;;;;;4.05;1.95;;;18.10;55.10;;;;;;5034186;28;20025;-71
2021/04/22 12:23:39;;;;;;;6.25;2.22;;;18.00;55.20;;;;;;5033809;28;20029;-71
2021/04/22 12:26:27;;;;;;;4.13;2.17;;;17.90;55.20;;;;;;5034016;28;20029;-72
2021/04/22 12:28:58;;;;;;;3.28;2.53;;;17.70;54.10;;;;;;5049384;28;20037;-71
2021/04/22 12:31:25;;;;;;;5.22;2.30;;;17.60;54.50;;;;;;5049970;28;20099;-72
2021/04/22 12:33:52;;;;;;;4.10;2.15;;;17.50;55.40;;;;;;5035011;28;20029;-72
2021/04/22 12:36:17;;;;;;;3.75;2.22;;;17.40;57.40;;;;;;5033597;28;20033;-72
2021/04/22 12:38:43;;;;;;;3.55;2.30;;;17.30;57.70;;;;;;5033463;28;20033;-71
2021/04/22 12:41:12;;;;;;;4.88;2.60;;;17.30;57.50;;;;;;5034562;28;20432;-72
2021/04/22 12:43:39;;;;;;;5.38;2.10;;;17.20;56.50;;;;;;5034318;28;20029;-72
2021/04/22 12:46:13;;;;;;;4.45;2.10;;;17.20;55.90;;;;;;5034308;28;20072;-71